createdAt,value
2022-11-19T00:02:01.056Z,12.80
2022-11-19T00:04:28.737Z,16.90
2022-11-19T00:06:56.626Z,11.30
2022-11-19T00:09:24.327Z,12.47
2022-11-19T00:12:10.541Z,17.07
2022-11-19T00:14:38.898Z,13.37
2022-11-19T00:17:06.543Z,13.57
2022-11-19T00:19:34.167Z,14.50
2022-11-19T00:22:01.805Z,12.73
2022-11-19T00:24:29.551Z,11.20
2022-11-19T00:26:57.242Z,12.53
2022-11-19T00:29:24.922Z,11.33
2022-11-19T00:31:52.646Z,13.03
2022-11-19T00:34:20.386Z,13.90
2022-11-19T00:36:48.097Z,14.13
2022-11-19T00:39:15.771Z,11.73
2022-11-19T00:41:43.365Z,13.53
2022-11-19T00:44:10.881Z,12.80
2022-11-19T00:46:38.462Z,14.10
2022-11-19T00:49:06.275Z,12.40
2022-11-19T00:51:33.954Z,12.10
2022-11-19T00:54:01.608Z,9.40
2022-11-19T00:56:29.317Z,10.33
2022-11-19T00:58:58.233Z,11.50
2022-11-19T01:01:26.993Z,12.00
2022-11-19T01:03:56.401Z,13.80
2022-11-19T01:06:26.655Z,12.30
2022-11-19T01:08:55.003Z,11.63
2022-11-19T01:11:33.880Z,13.37
2022-11-19T01:14:05.717Z,13.60
2022-11-19T01:16:41.608Z,13.13
2022-11-19T01:19:11.678Z,16.37
2022-11-19T01:21:39.991Z,14.57
2022-11-19T01:24:08.190Z,16.20
2022-11-19T01:26:35.875Z,18.00
2022-11-19T01:29:03.577Z,14.03
2022-11-19T01:31:31.669Z,15.73
2022-11-19T01:34:00.467Z,18.00
2022-11-19T01:36:30.620Z,19.00
2022-11-19T01:38:58.814Z,16.87
2022-11-19T01:41:33.906Z,22.23
2022-11-19T01:44:07.766Z,19.80
2022-11-19T01:46:38.956Z,20.27
2022-11-19T01:49:20.923Z,21.63
2022-11-19T01:52:02.794Z,18.70
2022-11-19T01:54:51.124Z,20.83
2022-11-19T01:57:19.907Z,20.10
2022-11-19T01:59:52.940Z,15.27
2022-11-19T02:02:22.870Z,16.10
2022-11-19T02:04:52.976Z,14.67
2022-11-19T02:07:29.175Z,21.93
2022-11-19T02:10:01.552Z,22.73
2022-11-19T02:13:21.576Z,19.30
2022-11-19T02:16:21.675Z,19.40
2022-11-19T02:19:24.979Z,15.20
2022-11-19T02:22:45.525Z,15.93
2022-11-19T02:25:59.232Z,22.70
2022-11-19T02:29:31.114Z,21.90
2022-11-19T02:32:23.884Z,21.10
2022-11-19T02:35:29.176Z,21.53
2022-11-19T02:38:42.032Z,22.63
2022-11-19T02:41:45.879Z,23.27
2022-11-19T02:44:54.343Z,22.27
2022-11-19T02:47:47.059Z,19.00
2022-11-19T02:50:51.556Z,22.87
2022-11-19T02:53:19.991Z,21.17
2022-11-19T02:56:05.955Z,26.27
2022-11-19T02:58:55.494Z,26.53
2022-11-19T03:01:47.791Z,20.47
2022-11-19T03:04:32.884Z,25.03
2022-11-19T03:07:19.654Z,26.80
2022-11-19T03:10:03.295Z,21.10
2022-11-19T03:13:34.148Z,22.70
2022-11-19T03:16:39.759Z,22.10
2022-11-19T03:19:44.645Z,34.60
2022-11-19T03:22:57.163Z,22.90
2022-11-19T03:25:58.278Z,22.93
2022-11-19T03:28:38.814Z,27.00
2022-11-19T03:31:10.414Z,24.13
2022-11-19T03:33:50.900Z,29.73
2022-11-19T03:36:30.072Z,28.40
2022-11-19T03:39:10.238Z,37.00
2022-11-19T03:41:44.204Z,31.30
2022-11-19T03:44:38.702Z,37.60
2022-11-19T03:47:21.222Z,29.97
2022-11-19T03:50:10.054Z,32.27
2022-11-19T03:52:37.812Z,26.27
2022-11-19T03:55:06.115Z,30.93
2022-11-19T03:57:34.475Z,30.50
2022-11-19T04:00:02.747Z,33.63
2022-11-19T04:02:42.060Z,31.10
2022-11-19T04:05:10.007Z,36.60
2022-11-19T04:07:37.674Z,29.30
2022-11-19T04:10:06.375Z,32.50
2022-11-19T04:12:34.534Z,34.07
2022-11-19T04:15:02.080Z,31.73
2022-11-19T04:17:29.830Z,40.77
2022-11-19T04:19:57.368Z,37.30
2022-11-19T04:22:25.047Z,29.57
2022-11-19T04:24:52.683Z,37.53
2022-11-19T04:27:20.404Z,32.87
2022-11-19T04:29:48.035Z,27.93
2022-11-19T04:32:15.835Z,33.67
2022-11-19T04:34:43.383Z,32.53
2022-11-19T04:37:11.090Z,35.07
2022-11-19T04:39:39.313Z,31.13
2022-11-19T04:42:07.028Z,36.10
2022-11-19T04:44:34.664Z,35.63
2022-11-19T04:47:02.334Z,23.60
2022-11-19T04:49:29.950Z,37.53
2022-11-19T04:51:57.520Z,35.97
2022-11-19T04:54:25.134Z,32.90
2022-11-19T04:56:52.726Z,39.50
2022-11-19T04:59:20.523Z,29.90
2022-11-19T05:01:49.437Z,33.23
2022-11-19T05:04:17.160Z,35.43
2022-11-19T05:06:44.912Z,35.30
2022-11-19T05:09:12.747Z,34.20
2022-11-19T05:11:40.397Z,35.57
2022-11-19T05:14:08.330Z,32.23
2022-11-19T05:16:35.916Z,22.73
2022-11-19T05:19:03.547Z,32.80
2022-11-19T05:21:31.112Z,31.27
2022-11-19T05:23:58.746Z,32.70
2022-11-19T05:26:26.913Z,32.67
2022-11-19T05:28:54.457Z,37.07
2022-11-19T05:31:22.062Z,33.50
2022-11-19T05:33:49.709Z,36.07
2022-11-19T05:36:17.310Z,35.90
2022-11-19T05:38:44.858Z,27.43
2022-11-19T05:41:12.468Z,30.30
2022-11-19T05:43:40.020Z,33.73
2022-11-19T05:46:07.642Z,38.20
2022-11-19T05:48:35.275Z,36.73
2022-11-19T05:51:03.233Z,31.00
2022-11-19T05:53:30.844Z,34.17
2022-11-19T05:55:58.533Z,33.30
2022-11-19T05:58:26.124Z,38.07
2022-11-19T06:00:59.485Z,32.93
2022-11-19T06:03:27.752Z,29.90
2022-11-19T06:05:59.834Z,33.73
2022-11-19T06:08:28.976Z,26.73
2022-11-19T06:10:56.842Z,28.37
2022-11-19T06:13:24.394Z,37.77
2022-11-19T06:15:52.975Z,29.40
2022-11-19T06:18:20.574Z,36.67
2022-11-19T06:20:48.292Z,35.33
2022-11-19T06:23:15.891Z,34.00
2022-11-19T06:25:43.514Z,31.80
2022-11-19T06:28:11.051Z,29.00
2022-11-19T06:30:39.254Z,33.20
2022-11-19T06:33:06.896Z,28.13
2022-11-19T06:35:34.427Z,32.40
2022-11-19T06:38:02.421Z,28.80
2022-11-19T06:40:30.247Z,29.67
2022-11-19T06:42:57.807Z,34.33
2022-11-19T06:45:25.463Z,31.47
2022-11-19T06:47:53.035Z,39.83
2022-11-19T06:50:20.734Z,36.37
2022-11-19T06:52:48.345Z,28.30
2022-11-19T06:55:16.201Z,31.97
2022-11-19T06:57:43.824Z,28.43
2022-11-19T07:00:15.354Z,35.80
2022-11-19T07:02:43.065Z,34.63
2022-11-19T07:05:10.883Z,30.80
2022-11-19T07:07:41.490Z,30.50
2022-11-19T07:10:09.852Z,30.40
2022-11-19T07:12:38.047Z,29.17
2022-11-19T07:15:06.576Z,27.77
2022-11-19T07:17:34.661Z,32.17
2022-11-19T07:20:02.515Z,27.10
2022-11-19T07:22:30.220Z,33.13
2022-11-19T07:24:57.797Z,34.27
2022-11-19T07:27:25.516Z,30.90
2022-11-19T07:29:53.115Z,28.80
2022-11-19T07:32:20.676Z,30.10
2022-11-19T07:34:48.425Z,22.97
2022-11-19T07:37:16.085Z,27.40
2022-11-19T07:39:43.706Z,32.80
2022-11-19T07:42:30.030Z,25.83
2022-11-19T07:44:57.602Z,26.57
2022-11-19T07:47:25.337Z,26.63
2022-11-19T07:49:54.301Z,28.00
2022-11-19T07:52:22.215Z,25.53
2022-11-19T07:54:50.452Z,26.90
2022-11-19T07:57:18.164Z,25.60
2022-11-19T07:59:45.718Z,24.67
2022-11-19T08:02:15.309Z,24.87
2022-11-19T08:04:43.012Z,30.20
2022-11-19T08:07:10.704Z,30.90
2022-11-19T08:09:38.455Z,27.23
2022-11-19T08:12:06.671Z,29.40
2022-11-19T08:14:34.405Z,28.70
2022-11-19T08:17:20.867Z,19.77
2022-11-19T08:19:48.527Z,18.87
2022-11-19T08:22:16.128Z,18.30
2022-11-19T08:24:44.952Z,29.17
2022-11-19T08:27:13.032Z,25.50
2022-11-19T08:29:41.126Z,22.07
2022-11-19T08:32:08.715Z,25.03
2022-11-19T08:34:36.847Z,26.60
2022-11-19T08:37:04.460Z,19.77
2022-11-19T08:39:32.131Z,24.00
2022-11-19T08:42:22.467Z,18.30
2022-11-19T08:44:50.671Z,22.50
2022-11-19T08:47:18.308Z,15.27
2022-11-19T08:49:45.885Z,16.03
2022-11-19T08:52:15.204Z,21.20
2022-11-19T08:54:43.414Z,22.13
2022-11-19T08:57:11.041Z,19.80
2022-11-19T08:59:38.643Z,18.60
2022-11-19T09:02:06.511Z,20.33
2022-11-19T09:04:34.257Z,21.47
2022-11-19T09:07:02.746Z,25.43
2022-11-19T09:09:30.404Z,15.47
2022-11-19T09:11:58.075Z,14.90
2022-11-19T09:14:25.701Z,19.53
2022-11-19T09:16:53.309Z,20.10
2022-11-19T09:19:21.110Z,20.00
2022-11-19T09:21:48.991Z,18.50
2022-11-19T09:24:16.725Z,17.93
2022-11-19T09:26:48.838Z,19.00
2022-11-19T09:29:21.908Z,27.93
2022-11-19T09:31:49.510Z,17.37
2022-11-19T09:34:17.465Z,30.40
2022-11-19T09:36:45.505Z,24.90
2022-11-19T09:39:13.192Z,27.07
2022-11-19T09:42:06.601Z,19.40
2022-11-19T09:45:04.121Z,19.20
2022-11-19T09:48:32.853Z,18.50
2022-11-19T09:51:17.082Z,16.00
2022-11-19T09:54:19.416Z,24.37
2022-11-19T09:56:51.934Z,20.80
2022-11-19T09:59:40.521Z,21.30
2022-11-19T10:02:23.850Z,18.67
2022-11-19T10:04:52.994Z,16.47
2022-11-19T10:08:24.320Z,14.13
2022-11-19T10:11:40.158Z,21.40
2022-11-19T10:15:12.899Z,14.50
2022-11-19T10:18:18.859Z,19.07
2022-11-19T10:21:54.561Z,16.63
2022-11-19T10:24:50.970Z,18.20
2022-11-19T10:27:47.424Z,17.30
2022-11-19T10:30:29.256Z,17.40
2022-11-19T10:33:34.889Z,15.20
2022-11-19T10:36:21.600Z,15.87
2022-11-19T10:39:03.950Z,20.33
2022-11-19T10:41:51.908Z,12.20
2022-11-19T10:44:49.556Z,18.90
2022-11-19T10:48:11.569Z,17.57
2022-11-19T10:50:42.184Z,18.77
2022-11-19T10:53:36.406Z,21.20
2022-11-19T10:56:27.550Z,14.90
2022-11-19T10:59:24.505Z,19.77
2022-11-19T11:02:03.996Z,8.87
2022-11-19T11:04:31.661Z,13.93
2022-11-19T11:07:04.392Z,15.10
2022-11-19T11:09:42.089Z,15.37
2022-11-19T11:12:45.312Z,8.57
2022-11-19T11:15:27.493Z,15.73
2022-11-19T11:18:12.967Z,14.90
2022-11-19T11:20:51.919Z,11.07
2022-11-19T11:23:28.418Z,11.87
2022-11-19T11:26:17.670Z,14.80
2022-11-19T11:29:06.236Z,12.43
2022-11-19T11:31:45.315Z,15.53
2022-11-19T11:34:44.027Z,14.03
2022-11-19T11:37:13.546Z,15.40
2022-11-19T11:39:44.465Z,15.10
2022-11-19T11:42:19.926Z,17.87
2022-11-19T11:45:01.917Z,13.50
2022-11-19T11:47:38.534Z,13.90
2022-11-19T11:50:24.442Z,15.13
2022-11-19T11:52:57.712Z,12.67
2022-11-19T11:55:25.246Z,13.70
2022-11-19T11:58:06.835Z,14.27
2022-11-19T12:00:47.250Z,11.80
2022-11-19T12:03:20.173Z,18.10
2022-11-19T12:06:16.762Z,14.90
2022-11-19T12:09:19.269Z,15.20
2022-11-19T12:12:24.494Z,8.73
2022-11-19T12:15:18.394Z,16.03
2022-11-19T12:18:48.197Z,13.90
2022-11-19T12:22:28.373Z,10.83
2022-11-19T12:25:31.711Z,12.40
2022-11-19T12:29:08.981Z,13.37
2022-11-19T12:32:12.265Z,14.23
2022-11-19T12:35:40.628Z,12.60
2022-11-19T12:38:44.904Z,12.00
2022-11-19T12:42:00.992Z,13.67
2022-11-19T12:45:36.276Z,14.60
2022-11-19T12:49:15.226Z,15.10
2022-11-19T12:52:46.747Z,14.63
2022-11-19T12:56:07.556Z,15.53
2022-11-19T13:00:04.787Z,15.73
2022-11-19T13:03:34.543Z,14.47
2022-11-19T13:06:35.280Z,13.30
2022-11-19T13:09:25.719Z,18.07
2022-11-19T13:12:08.367Z,10.80
2022-11-19T13:15:02.499Z,16.87
2022-11-19T13:17:47.220Z,15.83
2022-11-19T13:20:27.694Z,14.47
2022-11-19T13:23:05.577Z,13.57
2022-11-19T13:25:56.072Z,15.80
2022-11-19T13:29:00.063Z,12.67
2022-11-19T13:32:01.642Z,16.20
2022-11-19T13:35:01.773Z,16.30
2022-11-19T13:38:37.568Z,14.93
2022-11-19T13:41:21.767Z,13.07
2022-11-19T13:44:09.010Z,14.20
2022-11-19T13:47:00.822Z,12.47
2022-11-19T13:49:41.835Z,15.30
2022-11-19T13:52:46.735Z,12.83
2022-11-19T13:55:42.122Z,16.30
2022-11-19T13:58:27.017Z,17.77
2022-11-19T14:01:51.378Z,13.73
2022-11-19T14:04:51.748Z,16.87
2022-11-19T14:07:31.162Z,19.00
2022-11-19T14:10:27.225Z,15.37
2022-11-19T14:14:03.085Z,16.33
2022-11-19T14:17:14.270Z,21.43
2022-11-19T14:20:17.271Z,29.13
2022-11-19T14:23:15.353Z,19.80
2022-11-19T14:26:08.068Z,27.53
2022-11-19T14:28:53.088Z,24.40
2022-11-19T14:31:22.020Z,14.63
2022-11-19T14:33:49.560Z,19.47
2022-11-19T14:36:49.176Z,19.40
2022-11-19T14:39:47.724Z,12.83
2022-11-19T14:42:23.143Z,15.90
2022-11-19T14:45:05.656Z,14.10
2022-11-19T14:47:43.749Z,15.40
2022-11-19T14:50:29.470Z,12.27
2022-11-19T14:53:02.351Z,13.83
2022-11-19T14:55:34.767Z,10.90
2022-11-19T14:58:21.919Z,13.83
2022-11-19T15:00:51.379Z,12.40
2022-11-19T15:03:28.772Z,11.90
2022-11-19T15:05:57.122Z,11.90
2022-11-19T15:08:24.703Z,11.20
2022-11-19T15:11:12.898Z,13.03
2022-11-19T15:13:44.251Z,11.00
2022-11-19T15:16:28.366Z,13.90
2022-11-19T15:20:10.951Z,11.37
2022-11-19T15:23:29.039Z,11.80
2022-11-19T15:26:17.765Z,11.40
2022-11-19T15:29:28.480Z,11.40
2022-11-19T15:32:59.057Z,9.87
2022-11-19T15:36:27.467Z,12.03
2022-11-19T15:39:32.038Z,11.27
2022-11-19T15:42:13.829Z,10.87
2022-11-19T15:45:16.046Z,17.47
2022-11-19T15:48:09.713Z,10.00
2022-11-19T15:50:38.156Z,9.90
2022-11-19T15:53:24.359Z,11.57
2022-11-19T15:56:08.760Z,9.13
2022-11-19T15:58:47.127Z,10.93
2022-11-19T16:01:20.797Z,9.07
2022-11-19T16:03:53.986Z,13.23
2022-11-19T16:06:30.868Z,13.07
2022-11-19T16:09:07.337Z,10.17
2022-11-19T16:11:57.172Z,9.53
2022-11-19T16:14:48.597Z,14.33
2022-11-19T16:17:41.643Z,12.10
2022-11-19T16:20:10.884Z,16.50
2022-11-19T16:23:10.381Z,14.37
2022-11-19T16:25:44.127Z,16.73
2022-11-19T16:28:30.625Z,15.33
2022-11-19T16:31:05.389Z,14.70
2022-11-19T16:33:35.000Z,13.13
2022-11-19T16:36:20.499Z,13.83
2022-11-19T16:38:52.523Z,15.90
2022-11-19T16:41:43.496Z,13.67
2022-11-19T16:44:21.472Z,14.27
2022-11-19T16:46:50.619Z,23.00
2022-11-19T16:49:50.896Z,17.47
2022-11-19T16:52:45.069Z,28.43
2022-11-19T16:55:18.650Z,21.30
2022-11-19T16:57:57.682Z,22.00
2022-11-19T17:00:35.936Z,13.77
2022-11-19T17:03:21.766Z,16.17
2022-11-19T17:05:54.518Z,16.13
2022-11-19T17:08:38.660Z,18.10
2022-11-19T17:11:57.173Z,16.90
2022-11-19T17:14:39.629Z,16.97
2022-11-19T17:17:41.246Z,22.20
2022-11-19T17:20:28.193Z,18.10
2022-11-19T17:23:02.349Z,19.17
2022-11-19T17:25:32.135Z,18.10
2022-11-19T17:28:02.520Z,18.13
2022-11-19T17:30:36.639Z,18.47
2022-11-19T17:33:06.110Z,21.47
2022-11-19T17:35:46.081Z,22.13
2022-11-19T17:38:29.140Z,23.30
2022-11-19T17:41:02.922Z,21.00
2022-11-19T17:43:57.174Z,19.23
2022-11-19T17:46:29.656Z,83.00
2022-11-19T17:48:57.480Z,87.87
2022-11-19T17:51:26.845Z,79.63
2022-11-19T17:53:56.640Z,41.10
2022-11-19T17:56:31.026Z,25.73
2022-11-19T17:58:59.798Z,19.73
2022-11-19T18:01:28.077Z,20.73
2022-11-19T18:03:56.392Z,19.80
2022-11-19T18:06:24.016Z,14.80
2022-11-19T18:08:52.437Z,19.10
2022-11-19T18:11:25.902Z,17.23
2022-11-19T18:13:59.549Z,22.50
2022-11-19T18:16:37.660Z,20.47
2022-11-19T18:19:26.384Z,16.37
2022-11-19T18:21:56.318Z,23.50
2022-11-19T18:24:24.352Z,18.47
2022-11-19T18:26:52.004Z,18.37
2022-11-19T18:29:19.859Z,14.73
2022-11-19T18:31:53.491Z,16.80
2022-11-19T18:34:25.474Z,15.60
2022-11-19T18:36:53.066Z,18.03
2022-11-19T18:39:21.093Z,18.50
2022-11-19T18:41:48.985Z,16.73
2022-11-19T18:44:37.614Z,17.80
2022-11-19T18:47:11.000Z,19.10
2022-11-19T18:49:39.086Z,17.70
2022-11-19T18:52:15.286Z,17.40
2022-11-19T18:54:43.431Z,17.43
2022-11-19T18:57:13.139Z,18.73
2022-11-19T18:59:41.488Z,14.37
2022-11-19T19:02:11.960Z,17.03
2022-11-19T19:04:39.763Z,15.73
2022-11-19T19:07:07.398Z,20.60
2022-11-19T19:09:35.024Z,20.23
2022-11-19T19:12:18.116Z,17.50
2022-11-19T19:14:51.699Z,19.60
2022-11-19T19:17:19.932Z,19.83
2022-11-19T19:19:47.739Z,17.90
2022-11-19T19:22:15.441Z,21.27
2022-11-19T19:24:43.087Z,20.97
2022-11-19T19:27:11.189Z,25.60
2022-11-19T19:29:39.966Z,28.40
2022-11-19T19:32:08.216Z,18.30
2022-11-19T19:34:36.852Z,18.97
2022-11-19T19:37:06.149Z,22.20
2022-11-19T19:39:34.063Z,22.87
2022-11-19T19:42:01.642Z,22.87
2022-11-19T19:44:29.310Z,29.57
2022-11-19T19:46:56.944Z,22.90
2022-11-19T19:49:25.545Z,27.90
2022-11-19T19:51:53.381Z,24.23
2022-11-19T19:54:21.280Z,29.70
2022-11-19T19:56:49.044Z,19.70
2022-11-19T19:59:16.776Z,19.00
2022-11-19T20:01:50.856Z,23.70
2022-11-19T20:04:18.534Z,20.60
2022-11-19T20:06:48.188Z,22.00
2022-11-19T20:09:17.053Z,18.93
2022-11-19T20:11:44.664Z,21.43
2022-11-19T20:14:12.377Z,25.07
2022-11-19T20:16:41.897Z,26.63
2022-11-19T20:19:15.195Z,44.57
2022-11-19T20:21:43.269Z,33.70
2022-11-19T20:24:13.515Z,46.20
2022-11-19T20:26:43.098Z,24.97
2022-11-19T20:29:14.771Z,30.00
2022-11-19T20:31:48.315Z,33.30
2022-11-19T20:34:17.324Z,27.07
2022-11-19T20:36:45.059Z,22.23
2022-11-19T20:39:12.976Z,28.33
2022-11-19T20:41:58.998Z,31.80
2022-11-19T20:44:26.819Z,32.60
2022-11-19T20:47:00.551Z,35.23
2022-11-19T20:49:35.790Z,30.70
2022-11-19T20:52:04.016Z,27.63
2022-11-19T20:54:32.844Z,25.63
2022-11-19T20:57:01.477Z,32.60
2022-11-19T20:59:29.912Z,40.40
2022-11-19T21:01:58.584Z,38.23
2022-11-19T21:04:28.989Z,29.17
2022-11-19T21:06:56.794Z,34.93
2022-11-19T21:09:25.330Z,27.10
2022-11-19T21:11:53.354Z,22.90
2022-11-19T21:14:21.336Z,28.03
2022-11-19T21:16:49.067Z,28.23
2022-11-19T21:19:16.739Z,25.90
2022-11-19T21:21:45.641Z,29.10
2022-11-19T21:24:14.918Z,24.00
2022-11-19T21:26:42.925Z,28.33
2022-11-19T21:29:10.496Z,26.90
2022-11-19T21:31:39.076Z,25.77
2022-11-19T21:34:18.284Z,22.00
2022-11-19T21:36:49.240Z,23.20
2022-11-19T21:39:19.528Z,23.40
2022-11-19T21:41:47.873Z,21.53
2022-11-19T21:44:21.692Z,25.50
2022-11-19T21:46:50.868Z,45.40
2022-11-19T21:49:19.038Z,42.17
2022-11-19T21:51:46.964Z,28.77
2022-11-19T21:54:14.588Z,26.87
2022-11-19T21:56:42.799Z,25.93
2022-11-19T21:59:10.381Z,28.30
2022-11-19T22:01:38.683Z,25.23
2022-11-19T22:04:06.790Z,28.27
2022-11-19T22:06:34.456Z,22.77
2022-11-19T22:09:02.021Z,21.50
2022-11-19T22:11:29.888Z,23.80
2022-11-19T22:14:09.047Z,32.63
2022-11-19T22:16:40.567Z,24.80
2022-11-19T22:19:12.226Z,24.27
2022-11-19T22:21:40.851Z,35.07
2022-11-19T22:24:08.624Z,38.00
2022-11-19T22:26:36.262Z,26.90
2022-11-19T22:29:04.515Z,29.93
2022-11-19T22:31:32.272Z,24.97
2022-11-19T22:33:59.879Z,25.97
2022-11-19T22:36:33.340Z,24.63
2022-11-19T22:39:01.784Z,24.40
2022-11-19T22:41:29.444Z,29.37
2022-11-19T22:43:58.872Z,29.57
2022-11-19T22:46:26.785Z,26.37
2022-11-19T22:48:54.766Z,25.40
2022-11-19T22:51:26.294Z,22.43
2022-11-19T22:53:55.996Z,23.60
2022-11-19T22:56:29.749Z,24.53
2022-11-19T22:58:58.966Z,24.90
2022-11-19T23:01:34.938Z,27.40
2022-11-19T23:04:07.707Z,27.83
2022-11-19T23:06:37.801Z,23.93
2022-11-19T23:09:08.191Z,23.60
2022-11-19T23:11:54.599Z,25.70
2022-11-19T23:14:22.919Z,29.60
2022-11-19T23:16:51.017Z,26.27
2022-11-19T23:19:19.663Z,25.40
2022-11-19T23:21:48.295Z,24.30
2022-11-19T23:24:15.854Z,23.70
2022-11-19T23:26:43.661Z,28.90
2022-11-19T23:29:11.342Z,27.17
2022-11-19T23:31:41.542Z,26.97
2022-11-19T23:34:09.665Z,29.37
2022-11-19T23:36:41.158Z,25.40
2022-11-19T23:39:17.140Z,26.40
2022-11-19T23:41:46.927Z,33.60
2022-11-19T23:44:14.674Z,30.17
2022-11-19T23:46:42.318Z,27.67
2022-11-19T23:49:12.260Z,33.40
2022-11-19T23:51:41.241Z,33.87
2022-11-19T23:54:12.599Z,36.30
2022-11-19T23:56:40.491Z,30.10
2022-11-19T23:59:08.170Z,30.93
